createdAt,value
2023-03-29T00:00:51.000Z,4.04
2023-03-29T00:01:51.000Z,4.02
2023-03-29T00:02:51.000Z,4.04
2023-03-29T00:03:51.000Z,4.02
2023-03-29T00:04:51.000Z,3.99
2023-03-29T00:05:51.000Z,4.04
2023-03-29T00:06:51.000Z,4.02
2023-03-29T00:07:51.000Z,4.02
2023-03-29T00:08:51.000Z,4.00
2023-03-29T00:09:51.000Z,4.04
2023-03-29T00:10:51.000Z,4.02
2023-03-29T00:11:51.000Z,3.99
2023-03-29T00:12:51.000Z,4.00
2023-03-29T00:13:51.000Z,4.04
2023-03-29T00:14:51.000Z,4.06
2023-03-29T00:15:51.000Z,4.04
2023-03-29T00:16:51.000Z,4.04
2023-03-29T00:17:51.000Z,4.06
2023-03-29T00:18:51.000Z,4.04
2023-03-29T00:19:51.000Z,4.07
2023-03-29T00:20:51.000Z,4.06
2023-03-29T00:21:51.000Z,4.07
2023-03-29T00:22:51.000Z,4.07
2023-03-29T00:23:51.000Z,4.06
2023-03-29T00:24:51.000Z,4.02
2023-03-29T00:25:51.000Z,4.06
2023-03-29T00:26:51.000Z,4.06
2023-03-29T00:27:50.000Z,4.06
2023-03-29T00:28:50.000Z,4.07
2023-03-29T00:29:50.000Z,4.08
2023-03-29T00:30:50.000Z,4.08
2023-03-29T00:31:50.000Z,4.08
2023-03-29T00:32:50.000Z,4.08
2023-03-29T00:33:50.000Z,4.06
2023-03-29T00:34:50.000Z,4.06
2023-03-29T00:35:50.000Z,4.07
2023-03-29T00:36:50.000Z,4.04
2023-03-29T00:37:50.000Z,4.04
2023-03-29T00:38:50.000Z,4.04
2023-03-29T00:39:50.000Z,4.06
2023-03-29T00:40:50.000Z,4.07
2023-03-29T00:41:50.000Z,4.06
2023-03-29T00:42:50.000Z,4.06
2023-03-29T00:43:50.000Z,4.06
2023-03-29T00:44:50.000Z,4.04
2023-03-29T00:45:50.000Z,4.06
2023-03-29T00:46:50.000Z,4.06
2023-03-29T00:47:50.000Z,4.08
2023-03-29T00:48:50.000Z,4.06
2023-03-29T00:49:50.000Z,4.07
2023-03-29T00:50:50.000Z,4.08
2023-03-29T00:51:50.000Z,4.07
2023-03-29T00:52:50.000Z,4.06
2023-03-29T00:53:50.000Z,4.07
2023-03-29T00:54:50.000Z,4.06
2023-03-29T00:55:50.000Z,4.08
2023-03-29T00:56:50.000Z,4.08
2023-03-29T00:57:50.000Z,4.07
2023-03-29T00:58:50.000Z,4.08
2023-03-29T00:59:50.000Z,4.06
2023-03-29T01:00:50.000Z,4.11
2023-03-29T01:01:50.000Z,4.08
2023-03-29T01:02:50.000Z,4.10
2023-03-29T01:03:50.000Z,4.10
2023-03-29T01:04:50.000Z,4.08
2023-03-29T01:05:50.000Z,4.11
2023-03-29T01:06:50.000Z,4.11
2023-03-29T01:07:50.000Z,4.10
2023-03-29T01:08:50.000Z,4.10
2023-03-29T01:09:50.000Z,4.10
2023-03-29T01:10:50.000Z,4.08
2023-03-29T01:11:50.000Z,4.10
2023-03-29T01:12:50.000Z,4.10
2023-03-29T01:13:50.000Z,4.11
2023-03-29T01:14:50.000Z,4.11
2023-03-29T01:15:50.000Z,4.11
2023-03-29T01:16:50.000Z,4.16
2023-03-29T01:17:50.000Z,4.16
2023-03-29T01:18:50.000Z,4.16
2023-03-29T01:19:50.000Z,4.16
2023-03-29T01:20:50.000Z,4.16
2023-03-29T01:21:50.000Z,4.16
2023-03-29T01:22:50.000Z,4.16
2023-03-29T01:23:50.000Z,4.16
2023-03-29T01:24:50.000Z,4.13
2023-03-29T01:25:50.000Z,4.13
2023-03-29T01:26:50.000Z,4.13
2023-03-29T01:27:50.000Z,4.13
2023-03-29T01:28:50.000Z,4.11
2023-03-29T01:29:50.000Z,4.13
2023-03-29T01:30:50.000Z,4.13
2023-03-29T01:31:50.000Z,4.14
2023-03-29T01:32:50.000Z,4.16
2023-03-29T01:33:50.000Z,4.16
2023-03-29T01:34:50.000Z,4.17
2023-03-29T01:35:50.000Z,4.16
2023-03-29T01:36:50.000Z,4.14
2023-03-29T01:37:50.000Z,4.17
2023-03-29T01:38:50.000Z,4.14
2023-03-29T01:39:50.000Z,4.16
2023-03-29T01:40:50.000Z,4.13
2023-03-29T01:41:50.000Z,4.13
2023-03-29T01:42:50.000Z,4.11
2023-03-29T01:43:50.000Z,4.11
2023-03-29T01:44:50.000Z,4.13
2023-03-29T01:45:50.000Z,4.11
2023-03-29T01:46:50.000Z,4.11
2023-03-29T01:47:50.000Z,4.11
2023-03-29T01:48:50.000Z,4.14
2023-03-29T01:49:50.000Z,4.16
2023-03-29T01:50:50.000Z,4.16
2023-03-29T01:51:50.000Z,4.14
2023-03-29T01:52:50.000Z,4.16
2023-03-29T01:53:50.000Z,4.13
2023-03-29T01:54:50.000Z,4.17
2023-03-29T01:55:50.000Z,4.14
2023-03-29T01:56:50.000Z,4.16
2023-03-29T01:57:50.000Z,4.14
2023-03-29T01:58:50.000Z,4.16
2023-03-29T01:59:50.000Z,4.14
2023-03-29T02:00:50.000Z,4.16
2023-03-29T02:01:50.000Z,4.11
2023-03-29T02:02:50.000Z,4.11
2023-03-29T02:03:50.000Z,4.13
2023-03-29T02:04:50.000Z,4.14
2023-03-29T02:05:50.000Z,4.16
2023-03-29T02:06:50.000Z,4.14
2023-03-29T02:07:50.000Z,4.16
2023-03-29T02:08:50.000Z,4.16
2023-03-29T02:09:50.000Z,4.17
2023-03-29T02:10:50.000Z,4.17
2023-03-29T02:11:50.000Z,4.16
2023-03-29T02:12:50.000Z,4.17
2023-03-29T02:13:49.000Z,4.18
2023-03-29T02:14:49.000Z,4.18
2023-03-29T02:15:49.000Z,4.18
2023-03-29T02:16:49.000Z,4.20
2023-03-29T02:17:49.000Z,4.18
2023-03-29T02:18:49.000Z,4.18
2023-03-29T02:19:49.000Z,4.20
2023-03-29T02:20:49.000Z,4.21
2023-03-29T02:21:49.000Z,4.21
2023-03-29T02:22:49.000Z,4.25
2023-03-29T02:23:49.000Z,4.24
2023-03-29T02:24:49.000Z,4.25
2023-03-29T02:25:49.000Z,4.26
2023-03-29T02:26:49.000Z,4.25
2023-03-29T02:27:49.000Z,4.25
2023-03-29T02:28:49.000Z,4.24
2023-03-29T02:29:49.000Z,4.25
2023-03-29T02:30:49.000Z,4.24
2023-03-29T02:31:49.000Z,4.25
2023-03-29T02:32:49.000Z,4.24
2023-03-29T02:33:49.000Z,4.18
2023-03-29T02:34:49.000Z,4.24
2023-03-29T02:35:49.000Z,4.21
2023-03-29T02:36:49.000Z,4.24
2023-03-29T02:37:49.000Z,4.21
2023-03-29T02:38:49.000Z,4.25
2023-03-29T02:39:49.000Z,4.25
2023-03-29T02:40:49.000Z,4.24
2023-03-29T02:41:49.000Z,4.25
2023-03-29T02:42:49.000Z,4.25
2023-03-29T02:43:49.000Z,4.25
2023-03-29T02:44:49.000Z,4.25
2023-03-29T02:45:49.000Z,4.25
2023-03-29T02:46:49.000Z,4.26
2023-03-29T02:47:49.000Z,4.25
2023-03-29T02:48:49.000Z,4.25
2023-03-29T02:49:49.000Z,4.26
2023-03-29T02:50:49.000Z,4.24
2023-03-29T02:51:49.000Z,4.26
2023-03-29T02:52:49.000Z,4.25
2023-03-29T02:53:49.000Z,4.24
2023-03-29T02:54:49.000Z,4.25
2023-03-29T02:55:49.000Z,4.26
2023-03-29T02:56:49.000Z,4.26
2023-03-29T02:57:49.000Z,4.26
2023-03-29T02:58:49.000Z,4.26
2023-03-29T02:59:49.000Z,4.25
2023-03-29T03:00:49.000Z,4.25
2023-03-29T03:01:49.000Z,4.25
2023-03-29T03:02:49.000Z,4.28
2023-03-29T03:03:49.000Z,4.26
2023-03-29T03:04:49.000Z,4.26
2023-03-29T03:05:49.000Z,4.25
2023-03-29T03:06:49.000Z,4.28
2023-03-29T03:07:49.000Z,4.26
2023-03-29T03:08:49.000Z,4.26
2023-03-29T03:09:49.000Z,4.25
2023-03-29T03:10:49.000Z,4.28
2023-03-29T03:11:49.000Z,4.28
2023-03-29T03:12:49.000Z,4.29
2023-03-29T03:13:49.000Z,4.28
2023-03-29T03:14:49.000Z,4.24
2023-03-29T03:15:49.000Z,4.25
2023-03-29T03:16:49.000Z,4.28
2023-03-29T03:17:49.000Z,4.28
2023-03-29T03:18:49.000Z,4.31
2023-03-29T03:19:49.000Z,4.28
2023-03-29T03:20:49.000Z,4.31
2023-03-29T03:21:49.000Z,4.29
2023-03-29T03:22:49.000Z,4.31
2023-03-29T03:23:49.000Z,4.31
2023-03-29T03:24:49.000Z,4.31
2023-03-29T03:25:49.000Z,4.32
2023-03-29T03:26:49.000Z,4.35
2023-03-29T03:27:49.000Z,4.34
2023-03-29T03:28:49.000Z,4.34
2023-03-29T03:29:49.000Z,4.35
2023-03-29T03:30:49.000Z,4.34
2023-03-29T03:31:49.000Z,4.34
2023-03-29T03:32:49.000Z,4.34
2023-03-29T03:33:49.000Z,4.35
2023-03-29T03:34:49.000Z,4.34
2023-03-29T03:35:49.000Z,4.36
2023-03-29T03:36:49.000Z,4.36
2023-03-29T03:37:49.000Z,4.35
2023-03-29T03:38:49.000Z,4.32
2023-03-29T03:39:49.000Z,4.35
2023-03-29T03:40:49.000Z,4.39
2023-03-29T03:41:49.000Z,4.39
2023-03-29T03:42:49.000Z,4.39
2023-03-29T03:43:49.000Z,4.42
2023-03-29T03:44:49.000Z,4.39
2023-03-29T03:45:49.000Z,4.42
2023-03-29T03:46:49.000Z,4.44
2023-03-29T03:47:49.000Z,4.42
2023-03-29T03:48:49.000Z,4.44
2023-03-29T03:49:49.000Z,4.43
2023-03-29T03:50:49.000Z,4.46
2023-03-29T03:51:49.000Z,4.47
2023-03-29T03:52:49.000Z,4.49
2023-03-29T03:53:49.000Z,4.50
2023-03-29T03:54:49.000Z,4.51
2023-03-29T03:55:49.000Z,4.54
2023-03-29T03:56:49.000Z,4.54
2023-03-29T03:57:49.000Z,4.56
2023-03-29T03:58:48.000Z,4.56
2023-03-29T03:59:48.000Z,4.61
2023-03-29T04:00:48.000Z,4.61
2023-03-29T04:01:48.000Z,4.61
2023-03-29T04:02:48.000Z,4.61
2023-03-29T04:03:48.000Z,4.65
2023-03-29T04:04:48.000Z,4.67
2023-03-29T04:05:48.000Z,4.67
2023-03-29T04:06:48.000Z,4.67
2023-03-29T04:07:48.000Z,4.71
2023-03-29T04:08:48.000Z,4.68
2023-03-29T04:09:48.000Z,4.75
2023-03-29T04:10:48.000Z,4.77
2023-03-29T04:11:48.000Z,4.80
2023-03-29T04:12:48.000Z,4.79
2023-03-29T04:13:48.000Z,4.84
2023-03-29T04:14:48.000Z,4.84
2023-03-29T04:15:48.000Z,4.87
2023-03-29T04:16:48.000Z,4.88
2023-03-29T04:17:48.000Z,4.88
2023-03-29T04:18:48.000Z,4.88
2023-03-29T04:19:48.000Z,4.90
2023-03-29T04:20:48.000Z,4.91
2023-03-29T04:21:48.000Z,4.94
2023-03-29T04:22:48.000Z,4.93
2023-03-29T04:23:48.000Z,4.91
2023-03-29T04:24:48.000Z,4.93
2023-03-29T04:25:48.000Z,4.94
2023-03-29T04:26:48.000Z,4.94
2023-03-29T04:27:48.000Z,4.96
2023-03-29T04:28:48.000Z,5.01
2023-03-29T04:29:48.000Z,4.99
2023-03-29T04:30:48.000Z,5.02
2023-03-29T04:31:48.000Z,4.99
2023-03-29T04:32:48.000Z,5.04
2023-03-29T04:33:48.000Z,5.05
2023-03-29T04:34:48.000Z,5.05
2023-03-29T04:35:48.000Z,5.04
2023-03-29T04:36:48.000Z,5.04
2023-03-29T04:37:48.000Z,5.06
2023-03-29T04:38:48.000Z,5.09
2023-03-29T04:39:48.000Z,5.09
2023-03-29T04:40:48.000Z,5.09
2023-03-29T04:41:48.000Z,5.08
2023-03-29T04:42:48.000Z,5.12
2023-03-29T04:43:48.000Z,5.11
2023-03-29T04:44:48.000Z,5.14
2023-03-29T04:45:48.000Z,5.14
2023-03-29T04:46:48.000Z,5.15
2023-03-29T04:47:48.000Z,5.15
2023-03-29T04:48:48.000Z,5.17
2023-03-29T04:49:48.000Z,5.17
2023-03-29T04:50:48.000Z,5.15
2023-03-29T04:51:48.000Z,5.15
2023-03-29T04:52:48.000Z,5.17
2023-03-29T04:53:48.000Z,5.19
2023-03-29T04:54:48.000Z,5.19
2023-03-29T04:55:48.000Z,5.17
2023-03-29T04:56:48.000Z,5.20
2023-03-29T04:57:48.000Z,5.20
2023-03-29T04:58:48.000Z,5.22
2023-03-29T04:59:48.000Z,5.20
2023-03-29T05:00:48.000Z,5.22
2023-03-29T05:01:48.000Z,5.23
2023-03-29T05:02:48.000Z,5.23
2023-03-29T05:03:48.000Z,5.26
2023-03-29T05:04:48.000Z,5.23
2023-03-29T05:05:48.000Z,5.23
2023-03-29T05:06:48.000Z,5.22
2023-03-29T05:07:48.000Z,5.22
2023-03-29T05:08:48.000Z,5.22
2023-03-29T05:09:48.000Z,5.24
2023-03-29T05:10:48.000Z,5.23
2023-03-29T05:11:48.000Z,5.23
2023-03-29T05:12:48.000Z,5.24
2023-03-29T05:13:48.000Z,5.23
2023-03-29T05:14:48.000Z,5.26
2023-03-29T05:15:48.000Z,5.26
2023-03-29T05:16:48.000Z,5.29
2023-03-29T05:17:48.000Z,5.27
2023-03-29T05:18:48.000Z,5.29
2023-03-29T05:19:48.000Z,5.29
2023-03-29T05:20:48.000Z,5.24
2023-03-29T05:21:48.000Z,5.24
2023-03-29T05:22:48.000Z,5.29
2023-03-29T05:23:48.000Z,5.29
2023-03-29T05:24:48.000Z,5.27
2023-03-29T05:25:48.000Z,5.29
2023-03-29T05:26:48.000Z,5.32
2023-03-29T05:27:48.000Z,5.32
2023-03-29T05:28:48.000Z,5.30
2023-03-29T05:29:48.000Z,5.37
2023-03-29T05:30:48.000Z,5.37
2023-03-29T05:31:48.000Z,5.35
2023-03-29T05:32:48.000Z,5.35
2023-03-29T05:33:48.000Z,5.38
2023-03-29T05:34:48.000Z,5.40
2023-03-29T05:35:48.000Z,5.41
2023-03-29T05:36:48.000Z,5.42
2023-03-29T05:37:48.000Z,5.44
2023-03-29T05:38:48.000Z,5.45
2023-03-29T05:39:48.000Z,5.45
2023-03-29T05:40:48.000Z,5.47
2023-03-29T05:41:48.000Z,5.48
2023-03-29T05:42:48.000Z,5.49
2023-03-29T05:43:47.000Z,5.47
2023-03-29T05:44:47.000Z,5.51
2023-03-29T05:45:47.000Z,5.51
2023-03-29T05:46:47.000Z,5.49
2023-03-29T05:47:47.000Z,5.51
2023-03-29T05:48:47.000Z,5.55
2023-03-29T05:49:47.000Z,5.52
2023-03-29T05:50:47.000Z,5.56
2023-03-29T05:51:47.000Z,5.58
2023-03-29T05:52:47.000Z,5.56
2023-03-29T05:53:47.000Z,5.60
2023-03-29T05:54:47.000Z,5.59
2023-03-29T05:55:47.000Z,5.62
2023-03-29T05:56:47.000Z,5.63
2023-03-29T05:57:47.000Z,5.66
2023-03-29T05:57:47.000Z,5.66
2023-03-29T05:58:47.000Z,5.67
2023-03-29T05:58:47.000Z,5.67
2023-03-29T05:59:47.000Z,5.67
2023-03-29T05:59:47.000Z,5.67
2023-03-29T06:00:47.000Z,5.69
2023-03-29T06:00:47.000Z,5.69
2023-03-29T06:01:47.000Z,5.70
2023-03-29T06:01:47.000Z,5.70
2023-03-29T06:02:47.000Z,5.74
2023-03-29T06:03:47.000Z,5.77
2023-03-29T06:04:47.000Z,5.80
2023-03-29T06:05:47.000Z,5.81
2023-03-29T06:06:47.000Z,5.84
2023-03-29T06:07:47.000Z,5.84
2023-03-29T06:08:47.000Z,5.85
2023-03-29T06:09:47.000Z,5.87
2023-03-29T06:10:47.000Z,5.88
2023-03-29T06:11:47.000Z,5.88
2023-03-29T06:12:47.000Z,5.93
2023-03-29T06:13:47.000Z,5.92
2023-03-29T06:14:47.000Z,5.93
2023-03-29T06:15:47.000Z,5.96
2023-03-29T06:16:47.000Z,5.95
2023-03-29T06:17:47.000Z,5.95
2023-03-29T06:18:47.000Z,5.93
2023-03-29T06:19:47.000Z,5.92
2023-03-29T06:20:47.000Z,5.92
2023-03-29T06:21:47.000Z,5.96
2023-03-29T06:22:47.000Z,5.98
2023-03-29T06:23:47.000Z,5.96
2023-03-29T06:24:47.000Z,6.01
2023-03-29T06:25:47.000Z,6.02
2023-03-29T06:26:47.000Z,6.03
2023-03-29T06:27:47.000Z,6.01
2023-03-29T06:28:47.000Z,6.01
2023-03-29T06:29:47.000Z,6.02
2023-03-29T06:30:47.000Z,6.05
2023-03-29T06:31:47.000Z,6.08
2023-03-29T06:32:47.000Z,6.06
2023-03-29T06:33:47.000Z,6.08
2023-03-29T06:34:47.000Z,6.11
2023-03-29T06:35:47.000Z,6.11
2023-03-29T06:36:47.000Z,6.16
2023-03-29T06:37:47.000Z,6.19
2023-03-29T06:38:47.000Z,6.25
2023-03-29T06:39:47.000Z,6.24
2023-03-29T06:40:47.000Z,6.25
2023-03-29T06:41:47.000Z,6.30
2023-03-29T06:42:47.000Z,6.30
2023-03-29T06:43:47.000Z,6.32
2023-03-29T06:44:47.000Z,6.35
2023-03-29T06:45:47.000Z,6.35
2023-03-29T06:46:47.000Z,6.38
2023-03-29T06:47:47.000Z,6.38
2023-03-29T06:48:47.000Z,6.38
2023-03-29T06:49:47.000Z,6.42
2023-03-29T06:50:47.000Z,6.43
2023-03-29T06:51:47.000Z,6.40
2023-03-29T06:52:47.000Z,6.43
2023-03-29T06:53:47.000Z,6.45
2023-03-29T06:54:47.000Z,6.48
2023-03-29T06:55:47.000Z,6.50
2023-03-29T06:56:47.000Z,6.53
2023-03-29T06:57:47.000Z,6.54
2023-03-29T06:58:47.000Z,6.57
2023-03-29T06:59:47.000Z,6.58
2023-03-29T07:00:47.000Z,6.61
2023-03-29T07:01:47.000Z,6.64
2023-03-29T07:02:47.000Z,6.65
2023-03-29T07:03:47.000Z,6.71
2023-03-29T07:04:47.000Z,6.73
2023-03-29T07:05:47.000Z,6.72
2023-03-29T07:06:47.000Z,6.72
2023-03-29T07:07:47.000Z,6.75
2023-03-29T07:08:47.000Z,6.73
2023-03-29T07:09:47.000Z,6.76
2023-03-29T07:10:47.000Z,6.79
2023-03-29T07:11:47.000Z,6.81
2023-03-29T07:12:47.000Z,6.82
2023-03-29T07:13:47.000Z,6.86
2023-03-29T07:14:47.000Z,6.90
2023-03-29T07:15:47.000Z,6.93
2023-03-29T07:16:47.000Z,6.96
2023-03-29T07:17:47.000Z,6.93
2023-03-29T07:18:47.000Z,6.96
2023-03-29T07:19:47.000Z,7.00
2023-03-29T07:20:47.000Z,7.04
2023-03-29T07:21:47.000Z,7.05
2023-03-29T07:22:47.000Z,7.08
2023-03-29T07:23:47.000Z,7.09
2023-03-29T07:24:47.000Z,7.14
2023-03-29T07:25:47.000Z,7.16
2023-03-29T07:26:47.000Z,7.19
2023-03-29T07:27:47.000Z,7.21
2023-03-29T07:28:46.000Z,7.24
2023-03-29T07:29:46.000Z,7.27
2023-03-29T07:30:46.000Z,7.30
2023-03-29T07:31:46.000Z,7.29
2023-03-29T07:32:46.000Z,7.30
2023-03-29T07:33:46.000Z,7.33
2023-03-29T07:34:46.000Z,7.33
2023-03-29T07:35:46.000Z,7.32
2023-03-29T07:36:46.000Z,7.34
2023-03-29T07:37:46.000Z,7.39
2023-03-29T07:38:46.000Z,7.41
2023-03-29T07:39:46.000Z,7.41
2023-03-29T07:40:46.000Z,7.39
2023-03-29T07:41:46.000Z,7.39
2023-03-29T07:42:46.000Z,7.45
2023-03-29T07:43:46.000Z,7.45
2023-03-29T07:44:46.000Z,7.44
2023-03-29T07:45:46.000Z,7.45
2023-03-29T07:46:46.000Z,7.47
2023-03-29T07:47:46.000Z,7.48
2023-03-29T07:48:46.000Z,7.47
2023-03-29T07:49:46.000Z,7.50
2023-03-29T07:50:46.000Z,7.54
2023-03-29T07:51:46.000Z,7.55
2023-03-29T07:52:46.000Z,7.58
2023-03-29T07:53:46.000Z,7.60
2023-03-29T07:54:46.000Z,7.60
2023-03-29T07:55:46.000Z,7.60
2023-03-29T07:56:46.000Z,7.62
2023-03-29T07:57:46.000Z,7.66
2023-03-29T07:58:46.000Z,7.66
2023-03-29T07:59:46.000Z,7.66
2023-03-29T08:00:46.000Z,7.70
2023-03-29T08:01:46.000Z,7.73
2023-03-29T08:02:46.000Z,7.74
2023-03-29T08:03:46.000Z,7.74
2023-03-29T08:04:46.000Z,7.77
2023-03-29T08:05:46.000Z,7.77
2023-03-29T08:06:46.000Z,7.84
2023-03-29T08:07:46.000Z,7.86
2023-03-29T08:08:46.000Z,7.85
2023-03-29T08:09:46.000Z,7.88
2023-03-29T08:10:46.000Z,7.89
2023-03-29T08:11:46.000Z,7.94
2023-03-29T08:12:46.000Z,7.94
2023-03-29T08:13:46.000Z,7.95
2023-03-29T08:14:46.000Z,7.96
2023-03-29T08:15:46.000Z,8.00
2023-03-29T08:16:46.000Z,8.03
2023-03-29T08:17:46.000Z,8.06
2023-03-29T08:18:46.000Z,8.07
2023-03-29T08:19:46.000Z,8.12
2023-03-29T08:20:46.000Z,8.12
2023-03-29T08:21:46.000Z,8.18
2023-03-29T08:22:46.000Z,8.20
2023-03-29T08:23:46.000Z,8.24
2023-03-29T08:24:46.000Z,8.27
2023-03-29T08:25:46.000Z,8.28
2023-03-29T08:26:46.000Z,8.29
2023-03-29T08:27:46.000Z,8.32
2023-03-29T08:28:46.000Z,8.39
2023-03-29T08:29:46.000Z,8.40
2023-03-29T08:30:46.000Z,8.46
2023-03-29T08:31:46.000Z,8.50
2023-03-29T08:32:46.000Z,8.54
2023-03-29T08:33:46.000Z,8.54
2023-03-29T08:34:46.000Z,8.61
2023-03-29T08:35:46.000Z,8.64
2023-03-29T08:36:46.000Z,8.65
2023-03-29T08:37:46.000Z,8.64
2023-03-29T08:38:46.000Z,8.68
2023-03-29T08:39:46.000Z,8.70
2023-03-29T08:40:46.000Z,8.71
2023-03-29T08:41:46.000Z,8.73
2023-03-29T08:42:46.000Z,8.73
2023-03-29T08:43:46.000Z,8.76
2023-03-29T08:44:46.000Z,8.80
2023-03-29T08:45:46.000Z,8.80
2023-03-29T08:46:46.000Z,8.85
2023-03-29T08:47:46.000Z,8.83
2023-03-29T08:48:46.000Z,8.88
2023-03-29T08:49:46.000Z,8.86
2023-03-29T08:50:46.000Z,8.86
2023-03-29T08:51:46.000Z,8.88
2023-03-29T08:52:46.000Z,8.89
2023-03-29T08:53:46.000Z,8.88
2023-03-29T08:54:46.000Z,8.89
2023-03-29T08:55:46.000Z,8.91
2023-03-29T08:56:46.000Z,8.88
2023-03-29T08:57:46.000Z,8.91
2023-03-29T08:58:46.000Z,8.89
2023-03-29T08:59:46.000Z,8.89
2023-03-29T09:00:46.000Z,8.93
2023-03-29T09:01:46.000Z,8.88
2023-03-29T09:02:46.000Z,8.89
2023-03-29T09:03:46.000Z,8.88
2023-03-29T09:04:46.000Z,8.91
2023-03-29T09:05:46.000Z,8.91
2023-03-29T09:06:46.000Z,8.93
2023-03-29T09:07:46.000Z,8.96
2023-03-29T09:08:46.000Z,9.01
2023-03-29T09:09:46.000Z,9.03
2023-03-29T09:10:46.000Z,9.06
2023-03-29T09:11:45.000Z,9.04
2023-03-29T09:12:45.000Z,9.12
2023-03-29T09:13:45.000Z,9.13
2023-03-29T09:14:45.000Z,9.16
2023-03-29T09:15:45.000Z,9.19
2023-03-29T09:16:45.000Z,9.19
2023-03-29T09:17:45.000Z,9.22
2023-03-29T09:18:45.000Z,9.23
2023-03-29T09:19:45.000Z,9.24
2023-03-29T09:20:45.000Z,9.27
2023-03-29T09:21:45.000Z,9.27
2023-03-29T09:22:45.000Z,9.31
2023-03-29T09:23:45.000Z,9.32
2023-03-29T09:24:45.000Z,9.32
2023-03-29T09:25:45.000Z,9.32
2023-03-29T09:26:45.000Z,9.31
2023-03-29T09:27:45.000Z,9.34
2023-03-29T09:28:45.000Z,9.37
2023-03-29T09:29:45.000Z,9.38
2023-03-29T09:30:45.000Z,9.40
2023-03-29T09:31:45.000Z,9.44
2023-03-29T09:32:45.000Z,9.49
2023-03-29T09:33:45.000Z,9.49
2023-03-29T09:34:45.000Z,9.49
2023-03-29T09:35:45.000Z,9.50
2023-03-29T09:36:45.000Z,9.55
2023-03-29T09:37:45.000Z,9.60
2023-03-29T09:38:45.000Z,9.68
2023-03-29T09:39:45.000Z,9.71
2023-03-29T09:40:45.000Z,9.75
2023-03-29T09:41:45.000Z,9.78
2023-03-29T09:42:45.000Z,9.81
2023-03-29T09:43:45.000Z,9.86
2023-03-29T09:44:45.000Z,9.91
2023-03-29T09:45:45.000Z,9.95
2023-03-29T09:46:45.000Z,9.96
2023-03-29T09:47:45.000Z,10.04
2023-03-29T09:48:45.000Z,10.07
2023-03-29T09:49:45.000Z,10.11
2023-03-29T09:50:45.000Z,10.14
2023-03-29T09:51:45.000Z,10.22
2023-03-29T09:52:45.000Z,10.26
2023-03-29T09:53:45.000Z,10.31
2023-03-29T09:54:45.000Z,10.34
2023-03-29T09:55:45.000Z,10.39
2023-03-29T09:56:45.000Z,10.44
2023-03-29T09:57:45.000Z,10.47
2023-03-29T09:58:45.000Z,10.54
2023-03-29T09:59:45.000Z,10.65
2023-03-29T10:00:45.000Z,10.72
2023-03-29T10:01:45.000Z,10.80
2023-03-29T10:02:45.000Z,10.84
2023-03-29T10:03:45.000Z,10.88
2023-03-29T10:04:45.000Z,10.98
2023-03-29T10:05:45.000Z,11.01
2023-03-29T10:06:45.000Z,11.05
2023-03-29T10:07:45.000Z,11.13
2023-03-29T10:08:45.000Z,11.21
2023-03-29T10:09:45.000Z,11.28
2023-03-29T10:10:45.000Z,11.33
2023-03-29T10:11:45.000Z,11.39
2023-03-29T10:12:45.000Z,11.48
2023-03-29T10:13:45.000Z,11.51
2023-03-29T10:14:45.000Z,11.60
2023-03-29T10:15:45.000Z,11.62
2023-03-29T10:16:45.000Z,11.66
2023-03-29T10:17:45.000Z,11.69
2023-03-29T10:18:45.000Z,11.67
2023-03-29T10:19:45.000Z,11.77
2023-03-29T10:20:45.000Z,11.82
2023-03-29T10:21:45.000Z,11.87
2023-03-29T10:22:45.000Z,11.93
2023-03-29T10:23:45.000Z,11.98
2023-03-29T10:24:45.000Z,12.01
2023-03-29T10:25:45.000Z,12.04
2023-03-29T10:26:45.000Z,12.11
2023-03-29T10:27:45.000Z,12.16
2023-03-29T10:28:45.000Z,12.21
2023-03-29T10:29:45.000Z,12.22
2023-03-29T10:30:45.000Z,12.22
2023-03-29T10:31:45.000Z,12.25
2023-03-29T10:32:45.000Z,12.23
2023-03-29T10:33:45.000Z,12.26
2023-03-29T10:34:45.000Z,12.29
2023-03-29T10:35:45.000Z,12.31
2023-03-29T10:36:45.000Z,12.31
2023-03-29T10:37:45.000Z,12.31
2023-03-29T10:38:45.000Z,12.34
2023-03-29T10:39:45.000Z,12.34
2023-03-29T10:40:45.000Z,12.36
2023-03-29T10:41:45.000Z,12.38
2023-03-29T10:42:45.000Z,12.38
2023-03-29T10:43:45.000Z,12.44
2023-03-29T10:44:45.000Z,12.46
2023-03-29T10:45:45.000Z,12.46
2023-03-29T10:46:45.000Z,12.44
2023-03-29T10:47:45.000Z,12.41
2023-03-29T10:48:45.000Z,12.38
2023-03-29T10:49:45.000Z,12.37
2023-03-29T10:50:45.000Z,12.38
2023-03-29T10:51:45.000Z,12.36
2023-03-29T10:52:51.000Z,12.40
2023-03-29T10:53:44.000Z,12.40
2023-03-29T10:54:44.000Z,12.41
2023-03-29T10:55:44.000Z,12.44
2023-03-29T10:56:44.000Z,12.46
2023-03-29T10:57:44.000Z,12.44
2023-03-29T10:58:44.000Z,12.46
2023-03-29T10:59:44.000Z,12.43
2023-03-29T11:00:44.000Z,12.44
2023-03-29T11:01:44.000Z,12.44
2023-03-29T11:02:44.000Z,12.46
2023-03-29T11:03:44.000Z,12.46
2023-03-29T11:04:44.000Z,12.48
2023-03-29T11:05:44.000Z,12.51
2023-03-29T11:06:44.000Z,12.52
2023-03-29T11:07:44.000Z,12.52
2023-03-29T11:08:44.000Z,12.55
2023-03-29T11:09:44.000Z,12.58
2023-03-29T11:10:44.000Z,12.62
2023-03-29T11:11:44.000Z,12.67
2023-03-29T11:12:44.000Z,12.74
2023-03-29T11:13:44.000Z,12.85
2023-03-29T11:14:44.000Z,12.91
2023-03-29T11:15:44.000Z,13.01
2023-03-29T11:16:44.000Z,13.10
2023-03-29T11:17:44.000Z,13.17
2023-03-29T11:18:44.000Z,13.25
2023-03-29T11:19:44.000Z,13.28
2023-03-29T11:20:44.000Z,13.36
2023-03-29T11:21:44.000Z,13.38
2023-03-29T11:22:44.000Z,13.41
2023-03-29T11:23:44.000Z,13.44
2023-03-29T11:24:44.000Z,13.44
2023-03-29T11:25:44.000Z,13.43
2023-03-29T11:26:44.000Z,13.39
2023-03-29T11:27:44.000Z,13.38
2023-03-29T11:28:44.000Z,13.38
2023-03-29T11:29:44.000Z,13.44
2023-03-29T11:30:44.000Z,13.53
2023-03-29T11:31:44.000Z,13.63
2023-03-29T11:32:44.000Z,13.81
2023-03-29T11:33:44.000Z,13.98
2023-03-29T11:34:44.000Z,14.16
2023-03-29T11:35:44.000Z,14.30
2023-03-29T11:36:44.000Z,14.46
2023-03-29T11:37:44.000Z,14.60
2023-03-29T11:38:44.000Z,14.69
2023-03-29T11:39:44.000Z,14.78
2023-03-29T11:40:44.000Z,14.85
2023-03-29T11:41:44.000Z,14.91
2023-03-29T11:42:44.000Z,14.97
2023-03-29T11:43:44.000Z,14.98
2023-03-29T11:44:44.000Z,15.01
2023-03-29T11:45:44.000Z,14.97
2023-03-29T11:46:44.000Z,14.94
2023-03-29T11:47:44.000Z,14.90
2023-03-29T11:48:44.000Z,14.87
2023-03-29T11:49:44.000Z,14.86
2023-03-29T11:50:44.000Z,14.74
2023-03-29T11:51:44.000Z,14.67
2023-03-29T11:52:44.000Z,14.54
2023-03-29T11:53:44.000Z,14.48
2023-03-29T11:54:44.000Z,14.41
2023-03-29T11:55:44.000Z,14.38
2023-03-29T11:56:44.000Z,14.35
2023-03-29T11:57:44.000Z,14.21
2023-03-29T11:58:44.000Z,14.20
2023-03-29T11:59:44.000Z,14.21
2023-03-29T12:00:44.000Z,14.20
2023-03-29T12:01:44.000Z,14.24
2023-03-29T12:02:44.000Z,14.26
2023-03-29T12:03:44.000Z,14.24
2023-03-29T12:04:44.000Z,14.24
2023-03-29T12:05:44.000Z,14.27
2023-03-29T12:06:44.000Z,14.23
2023-03-29T12:07:44.000Z,14.21
2023-03-29T12:08:44.000Z,14.24
2023-03-29T12:09:44.000Z,14.23
2023-03-29T12:10:44.000Z,14.23
2023-03-29T12:11:44.000Z,14.30
2023-03-29T12:12:44.000Z,14.36
2023-03-29T12:13:44.000Z,14.39
2023-03-29T12:14:44.000Z,14.38
2023-03-29T12:15:44.000Z,14.39
2023-03-29T12:16:44.000Z,14.45
2023-03-29T12:17:44.000Z,14.53
2023-03-29T12:18:44.000Z,14.63
2023-03-29T12:19:44.000Z,14.74
2023-03-29T12:20:44.000Z,14.87
2023-03-29T12:21:44.000Z,15.05
2023-03-29T12:22:44.000Z,15.22
2023-03-29T12:23:44.000Z,15.35
2023-03-29T12:24:44.000Z,15.52
2023-03-29T12:25:44.000Z,15.62
2023-03-29T12:26:44.000Z,15.66
2023-03-29T12:27:44.000Z,15.66
2023-03-29T12:28:44.000Z,15.78
2023-03-29T12:29:44.000Z,15.78
2023-03-29T12:30:44.000Z,15.76
2023-03-29T12:31:44.000Z,15.68
2023-03-29T12:32:44.000Z,15.67
2023-03-29T12:33:43.000Z,15.62
2023-03-29T12:34:43.000Z,15.60
2023-03-29T12:35:43.000Z,15.58
2023-03-29T12:36:43.000Z,15.55
2023-03-29T12:37:43.000Z,15.52
2023-03-29T12:38:43.000Z,15.48
2023-03-29T12:39:43.000Z,15.46
2023-03-29T12:40:43.000Z,15.41
2023-03-29T12:41:43.000Z,15.38
2023-03-29T12:42:43.000Z,15.35
2023-03-29T12:43:43.000Z,15.34
2023-03-29T12:44:43.000Z,15.37
2023-03-29T12:45:43.000Z,15.37
2023-03-29T12:46:43.000Z,15.38
2023-03-29T12:47:43.000Z,15.38
2023-03-29T12:48:43.000Z,15.38
2023-03-29T12:49:43.000Z,15.40
2023-03-29T12:50:43.000Z,15.38
2023-03-29T12:51:43.000Z,15.37
2023-03-29T12:52:43.000Z,15.38
2023-03-29T12:53:43.000Z,15.44
2023-03-29T12:54:43.000Z,15.51
2023-03-29T12:55:43.000Z,15.53
2023-03-29T12:56:43.000Z,15.58
2023-03-29T12:57:43.000Z,15.66
2023-03-29T12:58:43.000Z,15.71
2023-03-29T12:59:43.000Z,15.85
2023-03-29T13:00:43.000Z,16.13
2023-03-29T13:01:43.000Z,16.73
2023-03-29T13:02:43.000Z,17.14
2023-03-29T13:03:43.000Z,17.39
2023-03-29T13:04:43.000Z,17.58
2023-03-29T13:05:43.000Z,17.66
2023-03-29T13:06:43.000Z,17.65